Terminal Aerodrome Forecast
Issued by NWS North Platte, NE

Home | Current Version | Previous Version | Text Only | Print | Product List | Glossary On
Versions: 1 2 3 4 5 6 7 8 9 10 11 12 13 14 15 16 17
000
FTUS43 KLBF 020500
TAFLBF
TAF
KLBF 020520Z 0206/0306 VRB06KT P6SM BKN100
     FM020800 VRB06KT P6SM VCTS BKN060CB
      TEMPO 0209/0213 VRB25G40KT 3SM +TSRA BKN030CB
     FM021300 VRB06KT P6SM -TSRA BKN050CB
     FM021500 35007KT P6SM BKN080
     FM030100 VRB06KT P6SM SCT120=

USA.gov is the U.S. government's official web portal to all federal, state and local government web resources and services.